• Join FlightAware (Why Join?)
  • Login
  • US Flag 
07:26PM EDT


 

Airport Tracker/Info


-or-


 

Live Flight TrackerFlight Track Log ✈ SWA554 ✈ 24-Oct-2013 ✈ KSAN - KMCI

Flight Track Log - Related Links

Times and Time Zones

All times are in EDT time to prevent confusion due to time zone crossing. See the SWA554 flight status page for this flight to view local times or setup timezone preferences in your user account.

Time Position Orientation Groundspeed Altitude Reporting Facility
EDT Latitude Longitude Course Direction KTS MPH feet Rate Location/Type
06:43PM 32.7419 -117.2225 285° West 155 178 1,300  Level Los Angeles Center
06:44PM 32.7556 -117.2847 285° West 188 216 3,200 1,920 Climbing Los Angeles Center
06:45PM 32.7103 -117.3106 206° Southwest 232 267 5,300 2,700 Climbing Los Angeles Center
06:46PM 32.6508 -117.2597 144° Southeast 258 297 8,900 3,000 Climbing Los Angeles Center
06:47PM 32.6367 -117.1447 98° East 296 341 11,600 2,580 Climbing Los Angeles Center
06:48PM 32.6175 -117.0300 101° East 338 389 14,300 2,640 Climbing Los Angeles Center
06:49PM 32.6175 -116.9067 90° East 370 426 17,100 2,340 Climbing Los Angeles Center
06:50PM 32.6303 -116.7728 83° East 399 459 19,200 2,160 Climbing Los Angeles Center
06:51PM 32.6442 -116.6300 83° East 435 501 21,600 2,460 Climbing Los Angeles Center
06:53PM 32.6611 -116.4569 83° East 449 517 24,300 2,100 Climbing Los Angeles Center
06:54PM 32.6742 -116.3069 84° East 466 536 26,000 1,560 Climbing Los Angeles Center
06:55PM 32.6900 -116.1503 83° East 487 560 27,600 1,680 Climbing Los Angeles Center
06:56PM 32.7050 -115.9903 84° East 490 564 29,500 1,980 Climbing Los Angeles Center
06:57PM 32.7233 -115.7972 84° East 493 567 31,800 1,800 Climbing Los Angeles Center
06:58PM 32.7386 -115.6358 84° East 494 568 33,300 1,500 Climbing Los Angeles Center
06:59PM 32.7822 -115.4822 71° East 493 567 35,000 780 Climbing Los Angeles Center
07:00PM 32.8272 -115.3308 70° East 491 565 35,000  Level Los Angeles Center
07:01PM 32.8736 -115.1800 70° East 489 563 35,000  Level Los Angeles Center
07:02PM 32.9281 -115.0003 70° East 486 559 35,000  Level Los Angeles Center
07:03PM 32.9706 -114.8483 72° East 485 558 35,000  Level Los Angeles Center
07:04PM 33.0153 -114.6958 71° East 488 562 35,000  Level Los Angeles Center
07:05PM 33.0600 -114.5439 71° East 487 560 35,000  Level Los Angeles Center
07:06PM 33.1044 -114.3908 71° East 489 563 35,000  Level Los Angeles Center
07:07PM 33.1492 -114.2375 71° East 490 564 35,000  Level Los Angeles Center
07:08PM 33.2047 -114.0522 70° East 493 567 35,000  Level Los Angeles Center
07:09PM 33.2492 -113.8997 71° East 490 564 35,000 600 Level Los Angeles Center
07:10PM 33.2922 -113.7444 72° East 492 566 36,300 1,260 Climbing Los Angeles Center
07:11PM 33.3292 -113.5922 74° East 484 557 37,700 1,140 Climbing Los Angeles Center
07:12PM 33.3664 -113.4406 74° East 478 550 38,700 600 Climbing Los Angeles Center
07:13PM 33.4061 -113.2789 74° East 487 560 39,000 120 Climbing Los Angeles Center
07:14PM 33.4436 -113.1247 74° East 484 557 39,000  Level Los Angeles Center
07:16PM 33.4958 -112.9094 74° East 480 552 39,000  Level Albuquerque Center
07:17PM 33.5328 -112.7553 74° East 481 554 39,000  Level Albuquerque Center
07:18PM 33.5747 -112.5811 74° East 481 554 39,000  Level Albuquerque Center
07:19PM 33.6128 -112.4258 74° East 485 558 39,000  Level Albuquerque Center
07:20PM 33.6489 -112.2703 74° East 486 559 39,000  Level Albuquerque Center
07:21PM 33.6856 -112.1142 74° East 488 562 39,000  Level Albuquerque Center
07:22PM 33.7278 -111.9328 74° East 485 558 39,000  Level Albuquerque Center
07:23PM 33.7669 -111.7633 74° East 488 562 39,000  Level Albuquerque Center
07:24PM 33.8006 -111.6222 74° East 487 560 39,000  Level Albuquerque Center
07:25PM 33.8353 -111.4686 75° East 484 557 39,000  Level Albuquerque Center
07:26PM 33.8700 -111.3133 75° East 484 557 39,000  Level Albuquerque Center
07:27PM 33.9122 -111.1275 75° East 483 556 39,000  Level Albuquerque Center
07:28PM 33.9481 -110.9700 75° East 488 562 39,000  Level Albuquerque Center
07:29PM 33.9828 -110.8131 75° East 488 562 39,000  Level Albuquerque Center
07:30PM 34.0194 -110.6431 75° East 486 559 39,000  Level Albuquerque Center
07:31PM 34.0547 -110.4850 75° East 487 560 39,000  Level Albuquerque Center
07:32PM 34.0889 -110.3258 75° East 489 563 39,000  Level Albuquerque Center
07:33PM 34.1244 -110.1664 75° East 492 566 39,000  Level Albuquerque Center
07:34PM 34.1597 -109.9992 76° East 489 563 39,000  Level Albuquerque Center
07:35PM 34.1969 -109.8236 76° East 487 560 39,000  Level Albuquerque Center
07:36PM 34.2294 -109.6725 75° East 486 559 39,000  Level Albuquerque Center
07:37PM 34.2619 -109.5225 75° East 485 558 39,000  Level Albuquerque Center
07:38PM 34.2992 -109.3442 76° East 487 560 39,000  Level Albuquerque Center
07:39PM 34.3303 -109.1903 76° East 491 565 39,000  Level Albuquerque Center
07:40PM 34.3669 -109.0144 76° East 488 562 39,000  Level Albuquerque Center
07:41PM 34.3981 -108.8631 76° East 486 559 39,000  Level Albuquerque Center
07:42PM 34.4333 -108.6889 76° East 483 556 39,000  Level Albuquerque Center
07:43PM 34.4647 -108.5386 76° East 482 555 39,000  Level Albuquerque Center
07:44PM 34.4972 -108.3758 76° East 486 559 39,000  Level Albuquerque Center
07:45PM 34.5281 -108.2161 77° East 489 563 39,000  Level Albuquerque Center
07:46PM 34.5600 -108.0569 76° East 488 562 39,000  Level Albuquerque Center
07:48PM 34.5917 -107.8964 76° East 489 563 39,000  Level Albuquerque Center
07:49PM 34.6225 -107.7367 77° East 487 560 39,000  Level Albuquerque Center
07:50PM 34.6600 -107.5453 77° East 488 562 39,000  Level Albuquerque Center
07:51PM 34.6914 -107.3814 77° East 493 567 39,000  Level Albuquerque Center
07:52PM 34.7236 -107.2097 77° East 487 560 39,000  Level Albuquerque Center
07:53PM 34.7536 -107.0506 77° East 485 558 39,000  Level Albuquerque Center
07:54PM 34.8083 -106.8881 68° East 484 557 39,000  Level Albuquerque Center
07:55PM 34.8608 -106.7514 65° Northeast 481 554 39,000  Level Albuquerque Center
07:56PM 34.9144 -106.6025 66° East 482 555 39,000  Level Albuquerque Center
07:57PM 34.9658 -106.4500 68° East 487 560 39,000  Level Albuquerque Center
07:58PM 35.0200 -106.3017 66° East 484 557 39,000  Level Albuquerque Center
07:59PM 35.0842 -106.1242 66° East 481 554 39,000  Level Albuquerque Center
08:00PM 35.1369 -105.9775 66° East 477 549 39,000  Level Albuquerque Center
08:01PM 35.1897 -105.8297 66° East 478 550 39,000  Level Albuquerque Center
08:02PM 35.2425 -105.6811 66° East 479 551 39,000  Level Albuquerque Center
08:03PM 35.2958 -105.5289 67° East 481 554 39,000  Level Albuquerque Center
08:04PM 35.3489 -105.3767 67° East 481 554 39,000  Level Albuquerque Center
08:05PM 35.4108 -105.1975 67° East 484 557 39,000  Level Albuquerque Center
08:06PM 35.4653 -105.0442 66° East 485 558 39,000  Level Albuquerque Center
08:07PM 35.5186 -104.8897 67° East 486 559 39,000  Level Albuquerque Center
08:08PM 35.5714 -104.7358 67° East 484 557 39,000  Level Albuquerque Center
08:09PM 35.6247 -104.5817 67° East 483 556 39,000  Level Albuquerque Center
08:10PM 35.6783 -104.4278 67° East 482 555 39,000  Level Albuquerque Center
08:11PM 35.7303 -104.2717 68° East 484 557 39,000  Level Albuquerque Center
08:12PM 35.7836 -104.1169 67° East 484 557 39,000  Level Albuquerque Center
08:13PM 35.8356 -103.9625 67° East 483 556 39,000  Level Albuquerque Center
08:14PM 35.8867 -103.8061 68° East 485 558 39,000  Level Albuquerque Center
08:15PM 35.9383 -103.6519 67° East 483 556 39,000  Level Albuquerque Center
08:17PM 36.0258 -103.3828 68° East 486 559 39,000  Level Kansas City Center
08:18PM 36.0761 -103.2286 68° East 485 558 39,000  Level Kansas City Center
08:19PM 36.1275 -103.0736 68° East 485 558 39,000  Level Kansas City Center
08:20PM 36.1767 -102.9172 69° East 487 560 39,000  Level Kansas City Center
08:21PM 36.2264 -102.7636 68° East 483 556 39,000  Level Kansas City Center
08:22PM 36.2858 -102.5783 68° East 482 555 39,000  Level Kansas City Center
08:23PM 36.3339 -102.4253 69° East 478 550 39,000  Level Kansas City Center
08:24PM 36.3822 -102.2736 68° East 475 547 39,000  Level Kansas City Center
08:25PM 36.4303 -102.1214 69° East 474 545 39,000  Level Kansas City Center
08:26PM 36.4775 -101.9689 69° East 473 544 39,000  Level Kansas City Center
08:27PM 36.5244 -101.8158 69° East 473 544 39,000  Level Kansas City Center
08:28PM 36.5750 -101.6561 68° East 471 542 39,000  Level Kansas City Center
08:29PM 36.6281 -101.4836 69° East 477 549 39,000  Level Kansas City Center
08:30PM 36.6733 -101.3375 69° East 476 548 39,000  Level Kansas City Center
08:31PM 36.7253 -101.1667 69° East 474 545 39,000  Level Kansas City Center
08:32PM 36.7697 -101.0192 69° East 476 548 39,000  Level Kansas City Center
08:33PM 36.8217 -100.8494 69° East 473 544 39,000  Level Kansas City Center
08:34PM 36.8650 -100.7025 70° East 473 544 39,000  Level Kansas City Center
08:36PM 36.9161 -100.5319 69° East 473 544 39,000  Level Kansas City Center
08:37PM 36.9597 -100.3847 70° East 473 544 39,000  Level Kansas City Center
08:38PM 37.0100 -100.2144 70° East 471 542 39,000  Level Kansas City Center
08:39PM 37.0528 -100.0675 70° East 471 542 39,000  Level Kansas City Center
08:40PM 37.1019 -99.8975 70° East 468 539 39,000  Level Kansas City Center
08:41PM 37.1436 -99.7528 70° East 466 536 39,000  Level Kansas City Center
08:42PM 37.1858 -99.6083 70° East 464 534 39,000  Level Kansas City Center
08:43PM 37.2314 -99.4467 70° East 463 533 39,000  Level Kansas City Center
08:44PM 37.2742 -99.2919 71° East 464 534 39,000  Level Kansas City Center
08:45PM 37.3200 -99.1308 70° East 464 534 39,000  Level Kansas City Center
08:46PM 37.3628 -98.9792 70° East 463 533 39,000  Level Kansas City Center
08:47PM 37.4058 -98.8269 70° East 464 534 39,000  Level Kansas City Center
08:48PM 37.4475 -98.6739 71° East 463 533 39,000  Level Kansas City Center
08:49PM 37.4989 -98.4906 70° East 465 535 39,000  Level Kansas City Center
08:50PM 37.5403 -98.3386 71° East 462 532 39,000  Level Kansas City Center
08:51PM 37.5822 -98.1867 71° East 461 531 39,000  Level Kansas City Center
08:52PM 37.6231 -98.0347 71° East 461 531 39,000  Level Kansas City Center
08:53PM 37.6639 -97.8800 72° East 461 531 39,000 -300 Level Kansas City Center
08:54PM 37.7050 -97.7253 71° East 463 533 38,500 -720 Descending Kansas City Center
08:55PM 37.7467 -97.5725 71° East 461 531 37,600 -1,020 Descending Kansas City Center
08:56PM 37.8122 -97.4083 63° Northeast 465 535 36,500 -1,020 Descending Kansas City Center
08:57PM 37.8675 -97.2642 64° Northeast 461 531 35,600 -960 Descending Kansas City Center
08:58PM 37.9250 -97.1150 64° Northeast 461 531 34,600 -1,020 Descending Kansas City Center
08:59PM 37.9778 -96.9761 64° Northeast 453 521 33,600 -780 Descending Kansas City Center
09:00PM 38.0439 -96.8008 64° Northeast 459 528 33,000 -300 Descending Kansas City Center
09:01PM 38.0994 -96.6550 64° Northeast 460 529 33,000 -720 Level Kansas City Center
09:02PM 38.1531 -96.5106 65° Northeast 454 522 31,600 -1,800 Descending Kansas City Center
09:03PM 38.2033 -96.3747 65° Northeast 432 497 29,400 -2,280 Descending Kansas City Center
09:04PM 38.2628 -96.2192 64° Northeast 439 505 27,000 -2,280 Descending Kansas City Center
09:05PM 38.3269 -96.0903 58° Northeast 447 514 24,800 -2,160 Descending Kansas City Center
09:06PM 38.4047 -95.9808 48° Northeast 436 502 22,600 -2,400 Descending Kansas City Center
09:07PM 38.4919 -95.8583 48° Northeast 420 483 20,000 -2,340 Descending Kansas City Center
09:08PM 38.5653 -95.7575 47° Northeast 407 468 17,900 -2,040 Descending Kansas City Center
09:10PM 38.6486 -95.6408 48° Northeast 399 459 15,800 -2,040 Descending Kansas City Center
09:11PM 38.7178 -95.5442 47° Northeast 389 448 13,800 -2,100 Descending Kansas City Center
09:12PM 38.7956 -95.4308 49° Northeast 379 436 11,500 -1,860 Descending Kansas City Center
09:13PM 38.8553 -95.3333 52° Northeast 365 420 10,000 -1,020 Descending Kansas City Center
09:14PM 38.9156 -95.2375 51° Northeast 309 356 9,400 -780 Descending Kansas City Center
09:15PM 38.9628 -95.1619 51° Northeast 285 328 8,500 -1,080 Descending Kansas City Center
09:16PM 39.0128 -95.0794 52° Northeast 265 305 7,200 -1,380 Descending Kansas City Center
09:17PM 39.0553 -95.0114 51° Northeast 258 297 5,700 -1,560 Descending Kansas City Center
09:18PM 39.1058 -94.9300 51° Northeast 261 300 4,000 -1,200 Descending Kansas City Center
09:19PM 39.1475 -94.8636 51° Northeast 253 291 3,300 -600 Descending Kansas City Center
09:20PM 39.1839 -94.8036 52° Northeast 227 261 2,800 -420 Descending Kansas City Center
09:21PM 39.2228 -94.7475 48° Northeast 186 214 2,500 -540 Descending Kansas City Center
09:22PM 39.2611 -94.7386 10° North 145 167 1,700 -780 Descending Kansas City Center
09:23PM 39.2925 -94.7286 14° North 124 143 1,000 -720 Descending Kansas City Center
09:25PM 39.2976 -94.7139 67° East  Level Estimated